Temp: 4.4°C   Baro: 1017.4mb
  Wind: 0.0mph   Dir: NNW (342°)
  Rain: 0.0mm (0.0mm/hr)
  Solar: 0W/m2  Hum: 83%

Historic data

Bath Spa Weather Station Historical Data
Daily Summary for April 13, 2021 Units:  Metric    English   Both
Daily Weekly Monthly Yearly Custom
  High: Low: Average:
Temperature: 13.7 °C 10.3 °C 11.7 °C
Dew Point: 10.3 °C 8.5 °C 9.4 °C
Humidity: 89% 75.8% 83%
Wind Speed: 11.9km/h 0km/h 4.3km/h
Wind Gust: 20.9km/h - -
Wind- - NW
Pressure: 1022.9 hPa 1012.1 hPa -
Precipitation: 0 mm    
Historical Graphs
 
 
Tabular Data for April 13, 2021
Time Temperature Dew Point Pressure Wind Wind Speed Wind Gust Humidity Rainfall Rate (Hourly) solar
00:04 11.4 °C 10 °C 1012.1 hPa WNW 7.7 km/h 19.3 km/h 88.2% 0 mm 0 W/m2
00:09 11.4 °C 10 °C 1012.1 hPa WNW 9.3 km/h 17.7 km/h 88% 0 mm 0 W/m2
00:14 11.4 °C 10 °C 1012.1 hPa WNW 9.5 km/h 17.7 km/h 88% 0 mm 0 W/m2
00:19 11.3 °C 9.9 °C 1012.1 hPa West 11.9 km/h 16.1 km/h 88% 0 mm 0 W/m2
00:24 11.3 °C 9.9 °C 1012.1 hPa WNW 11.6 km/h 19.3 km/h 88% 0 mm 0 W/m2
00:29 11.2 °C 9.8 °C 1012.1 hPa WNW 11.9 km/h 19.3 km/h 88% 0 mm 0 W/m2
00:34 11.1 °C 9.8 °C 1012.1 hPa West 8.5 km/h 16.1 km/h 88.8% 0 mm 0 W/m2
00:39 11.1 °C 9.8 °C 1012.4 hPa WNW 5.1 km/h 12.9 km/h 89% 0 mm 0 W/m2
00:44 11.1 °C 9.8 °C 1012.4 hPa WNW 3.4 km/h 6.4 km/h 89% 0 mm 0 W/m2
00:49 11 °C 9.7 °C 1012.4 hPa WNW 4.7 km/h 11.3 km/h 89% 0 mm 0 W/m2
00:54 10.9 °C 9.7 °C 1012.4 hPa WNW 9.3 km/h 16.1 km/h 89% 0 mm 0 W/m2
00:59 10.9 °C 9.7 °C 1012.4 hPa WNW 11.3 km/h 17.7 km/h 89% 0 mm 0 W/m2
01:04 11 °C 9.7 °C 1012.4 hPa West 9 km/h 16.1 km/h 89% 0 mm 0 W/m2
01:09 11.1 °C 9.8 °C 1012.4 hPa West 11.3 km/h 16.1 km/h 89% 0 mm 0 W/m2
01:13 11.1 °C 9.8 °C 1012.4 hPa West 11.1 km/h 20.9 km/h 89% 0 mm 0 W/m2
01:19 11.1 °C 9.7 °C 1012.4 hPa West 10.6 km/h 19.3 km/h 88.2% 0 mm 0 W/m2
01:24 11.1 °C 9.7 °C 1012.8 hPa WNW 10.3 km/h 19.3 km/h 88% 0 mm 0 W/m2
01:29 11.1 °C 9.7 °C 1012.8 hPa WNW 10.3 km/h 19.3 km/h 88% 0 mm 0 W/m2
01:34 10.9 °C 9.6 °C 1012.8 hPa WNW 5.6 km/h 11.3 km/h 88% 0 mm 0 W/m2
01:39 10.8 °C 9.4 °C 1012.8 hPa WNW 8.7 km/h 12.9 km/h 88% 0 mm 0 W/m2
01:44 10.7 °C 9.3 °C 1012.8 hPa WNW 8.5 km/h 12.9 km/h 88.2% 0 mm 0 W/m2
01:49 10.7 °C 9.4 °C 1012.8 hPa WNW 7.6 km/h 12.9 km/h 89% 0 mm 0 W/m2
01:54 10.6 °C 9.4 °C 1012.8 hPa WNW 7.2 km/h 12.9 km/h 89% 0 mm 0 W/m2
01:59 10.5 °C 9.3 °C 1013.1 hPa WNW 7.1 km/h 14.5 km/h 89% 0 mm 0 W/m2
02:04 10.4 °C 9.2 °C 1013.1 hPa WNW 8.7 km/h 12.9 km/h 89% 0 mm 0 W/m2
02:09 10.4 °C 9.2 °C 1012.8 hPa WNW 8 km/h 14.5 km/h 89% 0 mm 0 W/m2
02:14 10.3 °C 9.2 °C 1013.1 hPa WNW 7.1 km/h 11.3 km/h 89% 0 mm 0 W/m2
02:19 10.3 °C 9.2 °C 1013.1 hPa WNW 4 km/h 9.7 km/h 89% 0 mm 0 W/m2
02:24 10.3 °C 9.1 °C 1013.4 hPa WNW 1.9 km/h 6.4 km/h 89% 0 mm 0 W/m2
02:29 10.3 °C 9.2 °C 1013.4 hPa WNW 1.3 km/h 8 km/h 89% 0 mm 0 W/m2
02:34 10.4 °C 9.2 °C 1013.4 hPa WNW 6.4 km/h 12.9 km/h 89% 0 mm 0 W/m2
02:39 10.4 °C 9.2 °C 1013.4 hPa WNW 3.2 km/h 8 km/h 89% 0 mm 0 W/m2
02:44 10.6 °C 9.3 °C 1013.4 hPa WNW 1.1 km/h 9.7 km/h 89% 0 mm 0 W/m2
02:49 10.6 °C 9.4 °C 1013.4 hPa WNW 1.9 km/h 4.8 km/h 89% 0 mm 0 W/m2
02:54 10.7 °C 9.4 °C 1013.4 hPa WNW 5.1 km/h 6.4 km/h 89% 0 mm 0 W/m2
02:59 10.7 °C 9.5 °C 1013.4 hPa WNW 6.4 km/h 11.3 km/h 89% 0 mm 0 W/m2
03:04 10.7 °C 9.6 °C 1013.4 hPa WNW 4.8 km/h 11.3 km/h 89% 0 mm 0 W/m2
03:09 10.8 °C 9.6 °C 1013.4 hPa WNW 5.3 km/h 11.3 km/h 89% 0 mm 0 W/m2
03:14 10.9 °C 9.7 °C 1013.8 hPa WNW 5 km/h 9.7 km/h 89% 0 mm 0 W/m2
03:19 10.9 °C 9.6 °C 1013.8 hPa WNW 5.6 km/h 11.3 km/h 88.2% 0 mm 0 W/m2
03:24 10.9 °C 9.5 °C 1013.8 hPa WNW 6.9 km/h 11.3 km/h 88% 0 mm 0 W/m2
03:29 10.9 °C 9.5 °C 1013.8 hPa WNW 5.1 km/h 8 km/h 88% 0 mm 0 W/m2
03:34 10.9 °C 9.5 °C 1013.8 hPa WNW 3.9 km/h 9.7 km/h 88% 0 mm 0 W/m2
03:39 10.8 °C 9.4 °C 1013.8 hPa WNW 6.1 km/h 9.7 km/h 88% 0 mm 0 W/m2
03:44 10.8 °C 9.4 °C 1013.8 hPa WNW 6.6 km/h 9.7 km/h 88% 0 mm 0 W/m2
03:48 10.8 °C 9.4 °C 1014.1 hPa WNW 5.1 km/h 8 km/h 88% 0 mm 0 W/m2
03:54 10.8 °C 9.5 °C 1014.1 hPa WNW 3.9 km/h 9.7 km/h 88.6% 0 mm 0 W/m2
03:59 10.7 °C 9.5 °C 1014.1 hPa WNW 6 km/h 12.9 km/h 89% 0 mm 0 W/m2
04:04 10.7 °C 9.5 °C 1014.1 hPa WNW 6.4 km/h 14.5 km/h 89% 0 mm 0 W/m2
04:09 10.7 °C 9.5 °C 1014.1 hPa WNW 8.9 km/h 14.5 km/h 89% 0 mm 0 W/m2
04:14 10.7 °C 9.5 °C 1014.1 hPa WNW 4.5 km/h 11.3 km/h 89% 0 mm 0 W/m2
04:19 10.7 °C 9.5 °C 1014.4 hPa WNW 5 km/h 11.3 km/h 89% 0 mm 0 W/m2
04:24 10.7 °C 9.5 °C 1014.4 hPa WNW 5.1 km/h 11.3 km/h 89% 0 mm 0 W/m2
04:29 10.7 °C 9.5 °C 1014.4 hPa WNW 7.1 km/h 11.3 km/h 89% 0 mm 0 W/m2
04:34 10.6 °C 9.4 °C 1014.4 hPa WNW 9.7 km/h 14.5 km/h 89% 0 mm 0 W/m2
04:39 10.7 °C 9.4 °C 1014.4 hPa WNW 7.2 km/h 14.5 km/h 89% 0 mm 0 W/m2
04:44 10.7 °C 9.5 °C 1014.4 hPa WNW 7.9 km/h 14.5 km/h 89% 0 mm 0 W/m2
04:49 10.7 °C 9.5 °C 1014.4 hPa WNW 6.6 km/h 14.5 km/h 89% 0 mm 0 W/m2
04:54 10.7 °C 9.5 °C 1014.4 hPa WNW 6 km/h 11.3 km/h 89% 0 mm 0 W/m2
04:59 10.7 °C 9.5 °C 1014.4 hPa WNW 5.6 km/h 11.3 km/h 89% 0 mm 0 W/m2
05:04 10.7 °C 9.4 °C 1014.4 hPa WNW 6 km/h 11.3 km/h 88.8% 0 mm 0 W/m2
05:09 10.7 °C 9.3 °C 1014.8 hPa WNW 4.3 km/h 9.7 km/h 88.2% 0 mm 0 W/m2
05:14 10.7 °C 9.3 °C 1014.8 hPa WNW 1.9 km/h 6.4 km/h 88% 0 mm 0 W/m2
05:19 10.7 °C 9.3 °C 1015.1 hPa Calm   1.6 km/h 88% 0 mm 0 W/m2
05:24 10.7 °C 9.3 °C 1015.1 hPa WNW 0.8 km/h 6.4 km/h 88% 0 mm 0 W/m2
05:29 10.7 °C 9.3 °C 1015.1 hPa WNW 3.2 km/h 6.4 km/h 88% 0 mm 0 W/m2
05:34 10.7 °C 9.3 °C 1015.1 hPa WNW 4 km/h 8 km/h 88.4% 0 mm 0 W/m2
05:39 10.7 °C 9.4 °C 1015.1 hPa WNW 3.7 km/h 8 km/h 88.6% 0 mm 0 W/m2
05:44 10.7 °C 9.4 °C 1015.1 hPa WNW 1 km/h 4.8 km/h 88.6% 0 mm 0 W/m2
05:49 10.7 °C 9.3 °C 1015.1 hPa WNW 1.6 km/h 3.2 km/h 88.3% 0 mm 0 W/m2
05:54 10.7 °C 9.4 °C 1015.1 hPa WNW 3.4 km/h 6.4 km/h 88.6% 0 mm 0 W/m2
05:59 10.7 °C 9.4 °C 1015.5 hPa WNW 3.2 km/h 11.3 km/h 88.4% 0 mm 0 W/m2
06:04 10.7 °C 9.3 °C 1015.5 hPa WNW 3.1 km/h 6.4 km/h 88% 0 mm 0 W/m2
06:09 10.7 °C 9.3 °C 1015.5 hPa WNW 4 km/h 8 km/h 88.2% 0 mm 0 W/m2
06:14 10.7 °C 9.3 °C 1015.5 hPa WNW 4.5 km/h 9.7 km/h 88% 0 mm 0 W/m2
06:19 10.7 °C 9.3 °C 1015.5 hPa WNW 4.8 km/h 8 km/h 88% 0 mm 0 W/m2
06:24 10.7 °C 9.3 °C 1015.8 hPa WNW 1.9 km/h 6.4 km/h 88% 0 mm 0 W/m2
06:29 10.7 °C 9.3 °C 1015.8 hPa WNW 3.5 km/h 9.7 km/h 88% 0 mm 0 W/m2
06:34 10.7 °C 9.3 °C 1015.8 hPa WNW 4.7 km/h 9.7 km/h 88% 0 mm 0 W/m2
06:39 10.7 °C 9.3 °C 1015.8 hPa WNW 8 km/h 12.9 km/h 88% 0 mm 0 W/m2
06:44 10.7 °C 9.3 °C 1015.8 hPa WNW 6 km/h 12.9 km/h 88% 0 mm 0 W/m2
06:49 10.7 °C 9.3 °C 1016.1 hPa WNW 5.1 km/h 9.7 km/h 88% 0 mm 0 W/m2
06:54 10.7 °C 9.3 °C 1016.1 hPa WNW 4.7 km/h 11.3 km/h 88% 0 mm 0 W/m2
06:59 10.7 °C 9.3 °C 1016.1 hPa WNW 4.7 km/h 11.3 km/h 88% 0 mm 0 W/m2
07:04 10.7 °C 9.3 °C 1016.1 hPa WNW 6 km/h 11.3 km/h 88% 0 mm 0 W/m2
07:09 10.7 °C 9.2 °C 1016.5 hPa WNW 4.5 km/h 9.7 km/h 87.2% 0 mm 0 W/m2
07:14 10.7 °C 9.1 °C 1016.5 hPa WNW 4.5 km/h 11.3 km/h 87% 0 mm 0 W/m2
07:19 10.7 °C 9.2 °C 1016.5 hPa WNW 3.2 km/h 11.3 km/h 87.6% 0 mm 0 W/m2
07:24 10.7 °C 9.1 °C 1016.5 hPa WNW 4 km/h 8 km/h 87% 0 mm 5 W/m2
07:29 10.7 °C 9.1 °C 1016.8 hPa WNW 2.3 km/h 8 km/h 87% 0 mm 5 W/m2
07:34 10.7 °C 9.1 °C 1016.8 hPa WNW 5.8 km/h 9.7 km/h 87% 0 mm 5 W/m2
07:39 10.7 °C 9.1 °C 1016.8 hPa WNW 4 km/h 9.7 km/h 87% 0 mm 7 W/m2
07:44 10.7 °C 9.2 °C 1016.8 hPa WNW 2.9 km/h 6.4 km/h 87% 0 mm 9 W/m2
07:49 10.8 °C 9.2 °C 1017.2 hPa WNW 0.6 km/h 4.8 km/h 87% 0 mm 12 W/m2
07:54 10.8 °C 9.2 °C 1017.2 hPa WNW 1.8 km/h 6.4 km/h 87% 0 mm 16 W/m2
07:59 10.8 °C 9.2 °C 1017.2 hPa WNW 5.3 km/h 11.3 km/h 87% 0 mm 30 W/m2
08:04 10.8 °C 9.1 °C 1017.2 hPa WNW 3.5 km/h 11.3 km/h 86.2% 0 mm 33 W/m2
08:09 10.8 °C 9 °C 1017.2 hPa WNW 2.7 km/h 9.7 km/h 86% 0 mm 37 W/m2
08:14 10.8 °C 9 °C 1017.2 hPa WNW 4 km/h 8 km/h 86% 0 mm 37 W/m2
08:19 10.8 °C 9 °C 1017.2 hPa WNW 4.5 km/h 9.7 km/h 86% 0 mm 35 W/m2
08:24 10.9 °C 9.1 °C 1017.5 hPa WNW 4.8 km/h 9.7 km/h 86% 0 mm 37 W/m2
08:29 10.9 °C 9.1 °C 1017.5 hPa WNW 5.8 km/h 9.7 km/h 85.4% 0 mm 42 W/m2
08:34 10.9 °C 9 °C 1017.5 hPa WNW 4.3 km/h 8 km/h 85% 0 mm 65 W/m2
08:39 10.9 °C 9 °C 1017.5 hPa WNW 6.1 km/h 9.7 km/h 85% 0 mm 77 W/m2
08:44 11 °C 9.1 °C 1017.5 hPa WNW 5.8 km/h 9.7 km/h 85% 0 mm 81 W/m2
08:49 11.1 °C 9.2 °C 1017.5 hPa WNW 6.8 km/h 12.9 km/h 85% 0 mm 79 W/m2
08:54 11.2 °C 9.2 °C 1017.8 hPa WNW 7.1 km/h 11.3 km/h 85% 0 mm 86 W/m2
08:59 11.2 °C 9.3 °C 1017.8 hPa WNW 8.2 km/h 14.5 km/h 85% 0 mm 91 W/m2
09:04 11.2 °C 9.3 °C 1017.8 hPa WNW 6.3 km/h 11.3 km/h 84.8% 0 mm 100 W/m2
09:09 11.3 °C 9.3 °C 1017.8 hPa WNW 4.7 km/h 12.9 km/h 84.2% 0 mm 90 W/m2
09:14 11.3 °C 9.2 °C 1017.8 hPa WNW 6 km/h 12.9 km/h 84% 0 mm 104 W/m2
09:19 11.4 °C 9.3 °C 1017.8 hPa WNW 5.8 km/h 12.9 km/h 84% 0 mm 100 W/m2
09:24 11.4 °C 9.3 °C 1017.8 hPa WNW 6.8 km/h 11.3 km/h 84% 0 mm 88 W/m2
09:29 11.5 °C 9.4 °C 1017.8 hPa WNW 5.3 km/h 11.3 km/h 84% 0 mm 67 W/m2
09:33 11.6 °C 9.4 °C 1017.8 hPa WNW 7.1 km/h 11.3 km/h 84% 0 mm 77 W/m2
09:39 11.6 °C 9.3 °C 1018.2 hPa WNW 3.7 km/h 8 km/h 83% 0 mm 125 W/m2
09:44 11.7 °C 9.4 °C 1018.2 hPa WNW 7.1 km/h 14.5 km/h 83% 0 mm 127 W/m2
09:49 11.7 °C 9.4 °C 1018.2 hPa WNW 3.2 km/h 11.3 km/h 83% 0 mm 54 W/m2
09:54 11.8 °C 9.4 °C 1018.2 hPa WNW 2.1 km/h 6.4 km/h 83% 0 mm 77 W/m2
09:59 11.8 °C 9.6 °C 1018.5 hPa WNW 2.1 km/h 6.4 km/h 83% 0 mm 83 W/m2
10:04 11.8 °C 9.5 °C 1018.5 hPa WNW 4.5 km/h 9.7 km/h 83% 0 mm 98 W/m2
10:09 11.8 °C 9.5 °C 1018.5 hPa WNW 3.9 km/h 8 km/h 83% 0 mm 116 W/m2
10:14 11.8 °C 9.6 °C 1018.5 hPa WNW 2.9 km/h 8 km/h 83% 0 mm 113 W/m2
10:19 11.8 °C 9.6 °C 1018.5 hPa WNW 6.6 km/h 11.3 km/h 83% 0 mm 100 W/m2
10:24 11.8 °C 9.5 °C 1018.8 hPa WNW 5.1 km/h 8 km/h 83% 0 mm 111 W/m2
10:29 11.8 °C 9.5 °C 1018.8 hPa WNW 4.8 km/h 9.7 km/h 83% 0 mm 114 W/m2
10:34 11.9 °C 9.6 °C 1018.8 hPa WNW 5.1 km/h 9.7 km/h 83% 0 mm 118 W/m2
10:39 11.9 °C 9.6 °C 1018.8 hPa WNW 6 km/h 11.3 km/h 83% 0 mm 121 W/m2
10:44 11.9 °C 9.6 °C 1018.8 hPa WNW 4.7 km/h 11.3 km/h 83% 0 mm 132 W/m2
10:49 12 °C 9.7 °C 1018.8 hPa WNW 6 km/h 11.3 km/h 83% 0 mm 135 W/m2
10:54 12.1 °C 9.8 °C 1018.8 hPa WNW 5.5 km/h 11.3 km/h 83% 0 mm 121 W/m2
10:59 12.1 °C 9.6 °C 1018.8 hPa WNW 9.7 km/h 14.5 km/h 82% 0 mm 144 W/m2
11:04 12.1 °C 9.6 °C 1018.8 hPa WNW 7.4 km/h 14.5 km/h 82% 0 mm 148 W/m2
11:09 12.2 °C 9.7 °C 1018.8 hPa WNW 4.7 km/h 9.7 km/h 82% 0 mm 142 W/m2
11:14 12.2 °C 9.6 °C 1018.8 hPa WNW 6 km/h 12.9 km/h 81.4% 0 mm 162 W/m2
11:19 12.2 °C 9.5 °C 1018.8 hPa WNW 6.4 km/h 12.9 km/h 81% 0 mm 144 W/m2
11:24 12.2 °C 9.5 °C 1018.8 hPa WNW 5.6 km/h 12.9 km/h 81% 0 mm 144 W/m2
11:29 12.3 °C 9.7 °C 1018.8 hPa WNW 3.9 km/h 9.7 km/h 81.4% 0 mm 158 W/m2
11:34 12.3 °C 9.6 °C 1018.8 hPa WNW 2.4 km/h 8 km/h 81% 0 mm 181 W/m2
11:39 12.5 °C 9.9 °C 1018.8 hPa WNW 5.8 km/h 9.7 km/h 81.4% 0 mm 260 W/m2
11:44 12.7 °C 9.9 °C 1018.8 hPa WNW 4.5 km/h 8 km/h 81% 0 mm 455 W/m2
11:49 12.7 °C 9.8 °C 1018.5 hPa WNW 8.5 km/h 16.1 km/h 80.2% 0 mm 450 W/m2
11:54 12.8 °C 9.9 °C 1018.5 hPa WNW 6.8 km/h 14.5 km/h 80% 0 mm 450 W/m2
11:59 12.8 °C 9.8 °C 1018.5 hPa WNW 7.9 km/h 14.5 km/h 79.8% 0 mm 190 W/m2
12:04 12.7 °C 9.8 °C 1018.5 hPa WNW 8.5 km/h 12.9 km/h 79.8% 0 mm 429 W/m2
12:09 13.1 °C 10 °C 1018.5 hPa WNW 7.9 km/h 14.5 km/h 79.2% 0 mm 425 W/m2
12:14 13.1 °C 9.9 °C 1018.5 hPa WNW 6.4 km/h 14.5 km/h 78.4% 0 mm 176 W/m2
12:19 12.9 °C 9.7 °C 1018.5 hPa WNW 7.1 km/h 14.5 km/h 78.8% 0 mm 163 W/m2
12:24 12.8 °C 9.7 °C 1018.8 hPa WNW 6.4 km/h 14.5 km/h 79% 0 mm 144 W/m2
12:29 12.8 °C 9.7 °C 1018.8 hPa WNW 6.8 km/h 12.9 km/h 79% 0 mm 128 W/m2
12:34 12.7 °C 9.6 °C 1018.8 hPa WNW 5.6 km/h 12.9 km/h 79% 0 mm 163 W/m2
12:39 12.7 °C 9.6 °C 1018.8 hPa WNW 6.9 km/h 12.9 km/h 79% 0 mm 153 W/m2
12:44 12.7 °C 9.6 °C 1018.8 hPa WNW 9.7 km/h 16.1 km/h 79% 0 mm 220 W/m2
12:49 12.7 °C 9.7 °C 1018.8 hPa WNW 5.5 km/h 14.5 km/h 79% 0 mm 195 W/m2
12:54 12.8 °C 9.7 °C 1018.8 hPa WNW 8.2 km/h 12.9 km/h 79% 0 mm 121 W/m2
12:59 12.8 °C 9.7 °C 1018.8 hPa WNW 4.5 km/h 12.9 km/h 79% 0 mm 113 W/m2
13:04 12.8 °C 9.8 °C 1018.8 hPa WNW 3.7 km/h 8 km/h 79.4% 0 mm 322 W/m2
13:09 12.9 °C 9.9 °C 1018.8 hPa WNW 6.9 km/h 11.3 km/h 79.2% 0 mm 221 W/m2
13:14 12.8 °C 9.8 °C 1018.8 hPa WNW 6 km/h 11.3 km/h 79% 0 mm 158 W/m2
13:19 12.8 °C 9.7 °C 1018.8 hPa WNW 7.1 km/h 11.3 km/h 79% 0 mm 109 W/m2
13:24 12.8 °C 9.7 °C 1018.8 hPa WNW 5.1 km/h 9.7 km/h 79% 0 mm 104 W/m2
13:29 12.7 °C 9.6 °C 1018.8 hPa WNW 4.3 km/h 11.3 km/h 79% 0 mm 123 W/m2
13:34 12.8 °C 9.9 °C 1018.8 hPa WNW 4.8 km/h 11.3 km/h 79.8% 0 mm 188 W/m2
13:39 12.9 °C 9.8 °C 1018.8 hPa WNW 4.7 km/h 9.7 km/h 79.2% 0 mm 118 W/m2
13:44 12.8 °C 9.8 °C 1018.8 hPa WNW 5.8 km/h 11.3 km/h 79% 0 mm 163 W/m2
13:49 12.8 °C 9.7 °C 1018.8 hPa WNW 5.5 km/h 11.3 km/h 79% 0 mm 120 W/m2
13:54 12.8 °C 9.7 °C 1018.8 hPa WNW 6.6 km/h 11.3 km/h 78.8% 0 mm 109 W/m2
13:59 12.8 °C 9.5 °C 1018.8 hPa WNW 5 km/h 11.3 km/h 78% 0 mm 109 W/m2
14:04 12.9 °C 9.7 °C 1018.8 hPa WNW 7.1 km/h 14.5 km/h 78.4% 0 mm 83 W/m2
14:09 12.8 °C 9.5 °C 1018.8 hPa WNW 7.7 km/h 14.5 km/h 78% 0 mm 84 W/m2
14:14 12.8 °C 9.6 °C 1018.8 hPa WNW 4.8 km/h 9.7 km/h 78.5% 0 mm 70 W/m2
14:19 12.8 °C 9.7 °C 1018.8 hPa WNW 2.7 km/h 6.4 km/h 79% 0 mm 116 W/m2
14:24 12.9 °C 9.8 °C 1018.8 hPa WNW 4.7 km/h 9.7 km/h 79% 0 mm 97 W/m2
14:29 12.9 °C 9.8 °C 1018.8 hPa WNW 5.1 km/h 9.7 km/h 79% 0 mm 206 W/m2
14:34 13.4 °C 10.3 °C 1018.8 hPa WNW 3.5 km/h 6.4 km/h 78.8% 0 mm 206 W/m2
14:39 13.7 °C 10.2 °C 1018.8 hPa WNW 10 km/h 19.3 km/h 77% 0 mm 199 W/m2
14:44 13.6 °C 9.8 °C 1018.8 hPa WNW 8.5 km/h 20.9 km/h 76% 0 mm 186 W/m2
14:49 13.5 °C 9.8 °C 1018.8 hPa WNW 8.4 km/h 12.9 km/h 76% 0 mm 172 W/m2
14:54 13.6 °C 9.8 °C 1018.8 hPa WNW 6.4 km/h 14.5 km/h 76% 0 mm 176 W/m2
14:59 13.7 °C 10.1 °C 1018.8 hPa WNW 7.2 km/h 12.9 km/h 76.2% 0 mm 162 W/m2
15:04 13.7 °C 9.9 °C 1019.2 hPa WNW 8.2 km/h 16.1 km/h 75.8% 0 mm 142 W/m2
15:09 13.5 °C 9.8 °C 1019.2 hPa NW 7.2 km/h 14.5 km/h 76% 0 mm 105 W/m2
15:14 13.4 °C 9.7 °C 1019.2 hPa NW 6.8 km/h 12.9 km/h 76% 0 mm 86 W/m2
15:19 13.3 °C 9.7 °C 1019.2 hPa NW 3.5 km/h 9.7 km/h 76.2% 0 mm 40 W/m2
15:24 13.3 °C 9.7 °C 1019.2 hPa NW 4 km/h 11.3 km/h 76.4% 0 mm 39 W/m2
15:29 13.2 °C 9.5 °C 1019.2 hPa NW 3.4 km/h 9.7 km/h 76.4% 0 mm 35 W/m2
15:34 13.1 °C 9.4 °C 1019.2 hPa NW 3.9 km/h 6.4 km/h 76% 0 mm 23 W/m2
15:39 13 °C 9.4 °C 1019.5 hPa NW 2.4 km/h 11.3 km/h 76% 0 mm 16 W/m2
15:44 12.9 °C 9.4 °C 1019.5 hPa NW 3.9 km/h 9.7 km/h 76.8% 0 mm 16 W/m2
15:49 12.9 °C 9.4 °C 1019.5 hPa NW 4.8 km/h 9.7 km/h 77% 0 mm 16 W/m2
15:54 12.8 °C 9.4 °C 1019.5 hPa NW 4.5 km/h 6.4 km/h 77.6% 0 mm 19 W/m2
15:59 12.8 °C 9.5 °C 1019.5 hPa NW 4.8 km/h 9.7 km/h 78% 0 mm 19 W/m2
16:04 12.7 °C 9.4 °C 1019.5 hPa NW 3.4 km/h 6.4 km/h 78% 0 mm 14 W/m2
16:09 12.7 °C 9.5 °C 1019.5 hPa NW 1.3 km/h 6.4 km/h 78.2% 0 mm 12 W/m2
16:14 12.8 °C 9.8 °C 1019.5 hPa Calm   3.2 km/h 79% 0 mm 7 W/m2
16:19 13.1 °C 10 °C 1019.5 hPa NW 0.3 km/h 1.6 km/h 79% 0 mm 0 W/m2
16:24 13.3 °C 10.2 °C 1019.5 hPa NW 1 km/h 4.8 km/h 79% 0 mm 0 W/m2
16:29 13.2 °C 9.9 °C 1019.5 hPa NW 0.6 km/h 3.2 km/h 78.4% 0 mm 0 W/m2
16:34 12.9 °C 9.7 °C 1019.9 hPa NW 1.3 km/h 6.4 km/h 78.2% 0 mm 0 W/m2
16:39 12.8 °C 9.7 °C 1019.9 hPa NW 1.1 km/h 6.4 km/h 79% 0 mm 0 W/m2
16:44 12.7 °C 9.6 °C 1019.9 hPa NW 1.8 km/h 4.8 km/h 79% 0 mm 0 W/m2
16:49 12.6 °C 9.5 °C 1019.9 hPa NW 0.6 km/h 3.2 km/h 79% 0 mm 0 W/m2
16:54 12.6 °C 9.7 °C 1019.9 hPa NW 0.3 km/h 3.2 km/h 80% 0 mm 0 W/m2
16:59 12.6 °C 9.7 °C 1019.9 hPa NW 0.6 km/h 3.2 km/h 80% 0 mm 0 W/m2
17:04 12.6 °C 9.8 °C 1019.9 hPa NW 0.3 km/h 3.2 km/h 80.2% 0 mm 0 W/m2
17:08 12.8 °C 10.1 °C 1020.2 hPa NW 1.1 km/h 3.2 km/h 81% 0 mm 0 W/m2
17:14 12.8 °C 10.1 °C 1020.2 hPa NW 1.4 km/h 4.8 km/h 80.6% 0 mm 0 W/m2
17:19 12.8 °C 9.8 °C 1020.2 hPa NW 4 km/h 8 km/h 79.8% 0 mm 0 W/m2
17:24 12.7 °C 9.6 °C 1020.2 hPa NW 3.2 km/h 8 km/h 79% 0 mm 0 W/m2
17:29 12.7 °C 9.6 °C 1020.5 hPa NW 2.4 km/h 8 km/h 79% 0 mm 0 W/m2
17:34 12.7 °C 9.6 °C 1020.5 hPa NW 3.9 km/h 8 km/h 79% 0 mm 0 W/m2
17:39 12.5 °C 9.4 °C 1020.5 hPa NW 6 km/h 8 km/h 79% 0 mm 0 W/m2
17:44 12.4 °C 9.3 °C 1020.5 hPa NW 3.5 km/h 6.4 km/h 79% 0 mm 0 W/m2
17:49 12.4 °C 9.3 °C 1020.5 hPa NW 2.7 km/h 6.4 km/h 79% 0 mm 0 W/m2
17:54 12.4 °C 9.3 °C 1020.5 hPa NW 2.7 km/h 4.8 km/h 79% 0 mm 0 W/m2
17:59 12.4 °C 9.3 °C 1020.9 hPa NW 2.6 km/h 4.8 km/h 79% 0 mm 0 W/m2
18:04 12.3 °C 9.2 °C 1020.9 hPa NW 2.9 km/h 6.4 km/h 79% 0 mm 0 W/m2
18:09 12.2 °C 9.2 °C 1020.9 hPa NW 0.6 km/h 3.2 km/h 79% 0 mm 0 W/m2
18:14 12.2 °C 9.2 °C 1020.9 hPa NW 1.9 km/h 3.2 km/h 79% 0 mm 0 W/m2
18:19 12.2 °C 9.2 °C 1020.9 hPa NW 1.6 km/h 3.2 km/h 79.4% 0 mm 0 W/m2
18:24 12.2 °C 9.3 °C 1020.9 hPa NW 1.3 km/h 4.8 km/h 80% 0 mm 0 W/m2
18:29 12.2 °C 9.3 °C 1021.2 hPa NW 1.3 km/h 3.2 km/h 80% 0 mm 0 W/m2
18:34 12 °C 9.1 °C 1021.2 hPa NW 0.3 km/h 1.6 km/h 80% 0 mm 0 W/m2
18:39 12 °C 9.2 °C 1021.2 hPa NW 0.6 km/h 4.8 km/h 80.4% 0 mm 0 W/m2
18:44 12 °C 9.3 °C 1021.2 hPa NW 1 km/h 3.2 km/h 81% 0 mm 0 W/m2
18:49 12 °C 9.3 °C 1021.2 hPa NW 0.8 km/h 3.2 km/h 81% 0 mm 0 W/m2
18:54 12.1 °C 9.4 °C 1021.2 hPa NW 1.9 km/h 3.2 km/h 81.2% 0 mm 0 W/m2
18:59 12.3 °C 9.6 °C 1021.2 hPa NW 1.3 km/h 4.8 km/h 81% 0 mm 0 W/m2
19:04 12.2 °C 9.4 °C 1021.2 hPa NW 2.6 km/h 4.8 km/h 80.6% 0 mm 0 W/m2
19:09 12.1 °C 9.2 °C 1021.2 hPa NW 0.8 km/h 4.8 km/h 80% 0 mm 0 W/m2
19:14 12.1 °C 9.2 °C 1021.2 hPa NW 0.6 km/h 3.2 km/h 80% 0 mm 0 W/m2
19:19 12.1 °C 9.2 °C 1021.2 hPa Calm     80% 0 mm 0 W/m2
19:24 12.1 °C 9.3 °C 1021.2 hPa Calm     80.2% 0 mm 0 W/m2
19:29 12.1 °C 9.2 °C 1021.2 hPa NW 1.9 km/h 6.4 km/h 80% 0 mm 0 W/m2
19:34 11.9 °C 9.1 °C 1021.2 hPa NW 1.3 km/h 3.2 km/h 80.4% 0 mm 0 W/m2
19:39 11.9 °C 9.1 °C 1021.2 hPa NW 0.3 km/h 3.2 km/h 80.4% 0 mm 0 W/m2
19:44 12.1 °C 9.4 °C 1021.2 hPa Calm   1.6 km/h 81% 0 mm 0 W/m2
19:49 12 °C 9.3 °C 1021.2 hPa Calm   1.6 km/h 81% 0 mm 0 W/m2
19:54 11.9 °C 9.2 °C 1021.2 hPa NW 0.3 km/h 3.2 km/h 81% 0 mm 0 W/m2
19:59 12 °C 9.4 °C 1021.6 hPa Calm     81.6% 0 mm 0 W/m2
20:04 12.2 °C 9.7 °C 1021.6 hPa NW 0.3 km/h 3.2 km/h 82% 0 mm 0 W/m2
20:09 12.2 °C 9.6 °C 1021.2 hPa Calm   1.6 km/h 81.6% 0 mm 0 W/m2
20:14 12.1 °C 9.6 °C 1021.6 hPa NW 1.6 km/h 4.8 km/h 81.8% 0 mm 0 W/m2
20:19 11.9 °C 9.3 °C 1021.2 hPa NW 3.5 km/h 6.4 km/h 81% 0 mm 0 W/m2
20:24 11.8 °C 9.2 °C 1021.6 hPa NW 1.8 km/h 3.2 km/h 81% 0 mm 0 W/m2
20:29 11.8 °C 8.9 °C 1021.6 hPa NW 2.1 km/h 4.8 km/h 80% 0 mm 0 W/m2
20:34 11.8 °C 8.9 °C 1021.6 hPa NW 0.6 km/h 4.8 km/h 80% 0 mm 0 W/m2
20:39 11.9 °C 9 °C 1021.6 hPa Calm   1.6 km/h 80% 0 mm 0 W/m2
20:44 12.1 °C 9.2 °C 1021.6 hPa Calm     80% 0 mm 0 W/m2
20:49 12.1 °C 9.2 °C 1021.6 hPa NW 1.4 km/h 4.8 km/h 80% 0 mm 0 W/m2
20:54 11.9 °C 9.1 °C 1021.6 hPa NW 1 km/h 4.8 km/h 80% 0 mm 0 W/m2
20:59 12.1 °C 9.2 °C 1021.6 hPa Calm     80% 0 mm 0 W/m2
21:04 12.2 °C 9.3 °C 1021.6 hPa Calm   1.6 km/h 80% 0 mm 0 W/m2
21:09 12 °C 9.1 °C 1021.6 hPa NW 1.3 km/h 6.4 km/h 80% 0 mm 0 W/m2
21:14 11.8 °C 9 °C 1021.6 hPa NW 0.8 km/h 6.4 km/h 80.8% 0 mm 0 W/m2
21:19 11.7 °C 9 °C 1021.6 hPa Calm   1.6 km/h 81% 0 mm 0 W/m2
21:24 11.6 °C 8.9 °C 1021.9 hPa Calm   1.6 km/h 81% 0 mm 0 W/m2
21:29 11.6 °C 8.9 °C 1021.9 hPa NW 2.9 km/h 6.4 km/h 81% 0 mm 0 W/m2
21:34 11.4 °C 8.9 °C 1021.9 hPa NW 1.9 km/h 6.4 km/h 81.8% 0 mm 0 W/m2
21:39 11.4 °C 8.9 °C 1021.9 hPa NW 0.6 km/h 1.6 km/h 82% 0 mm 0 W/m2
21:44 11.4 °C 8.9 °C 1021.9 hPa NW 0.8 km/h 3.2 km/h 82% 0 mm 0 W/m2
21:49 11.4 °C 8.9 °C 1021.9 hPa NW 0.3 km/h 3.2 km/h 82% 0 mm 0 W/m2
21:54 11.4 °C 8.9 °C 1022.2 hPa NW 1.1 km/h 4.8 km/h 82% 0 mm 0 W/m2
21:59 11.3 °C 8.8 °C 1022.2 hPa NW 1.6 km/h 4.8 km/h 82% 0 mm 0 W/m2
22:04 11.3 °C 8.8 °C 1022.2 hPa NW 1.1 km/h 4.8 km/h 82% 0 mm 0 W/m2
22:09 11.3 °C 8.8 °C 1022.2 hPa NW 0.6 km/h 3.2 km/h 82% 0 mm 0 W/m2
22:14 11.3 °C 8.8 °C 1022.2 hPa NW 2.1 km/h 4.8 km/h 82% 0 mm 0 W/m2
22:19 11.3 °C 8.8 °C 1022.2 hPa NW 3.4 km/h 6.4 km/h 82% 0 mm 0 W/m2
22:24 11.3 °C 8.8 °C 1022.2 hPa NW 1.3 km/h 6.4 km/h 82% 0 mm 0 W/m2
22:29 11.4 °C 8.9 °C 1022.2 hPa NW 1.6 km/h 4.8 km/h 82% 0 mm 0 W/m2
22:34 11.4 °C 8.9 °C 1022.2 hPa NW 2.9 km/h 6.4 km/h 82% 0 mm 0 W/m2
22:39 11.3 °C 8.8 °C 1022.2 hPa NW 1.4 km/h 6.4 km/h 82% 0 mm 0 W/m2
22:44 11.3 °C 8.8 °C 1022.2 hPa NW 1.8 km/h 4.8 km/h 82% 0 mm 0 W/m2
22:49 11.3 °C 8.8 °C 1022.2 hPa NW 1.9 km/h 4.8 km/h 82% 0 mm 0 W/m2
22:53 11.3 °C 8.8 °C 1022.2 hPa NW 1.6 km/h 3.2 km/h 82% 0 mm 0 W/m2
23:04 11.2 °C 8.6 °C 1022.6 hPa NW 1.4 km/h 3.2 km/h 81.2% 0 mm 0 W/m2
23:09 11.2 °C 8.5 °C 1022.6 hPa NW 1.4 km/h 4.8 km/h 81% 0 mm 0 W/m2
23:14 11.2 °C 8.5 °C 1022.6 hPa NW 1.8 km/h 4.8 km/h 81% 0 mm 0 W/m2
23:19 11.2 °C 8.5 °C 1022.6 hPa NW 1.3 km/h 4.8 km/h 81% 0 mm 0 W/m2
23:24 11.2 °C 8.5 °C 1022.6 hPa NW 3.2 km/h 4.8 km/h 81% 0 mm 0 W/m2
23:29 11.2 °C 8.5 °C 1022.6 hPa NW 2.6 km/h 3.2 km/h 81% 0 mm 0 W/m2
23:34 11.1 °C 8.5 °C 1022.6 hPa NW 1.4 km/h 3.2 km/h 81% 0 mm 0 W/m2
23:39 11.1 °C 8.5 °C 1022.6 hPa NW 2.6 km/h 4.8 km/h 81% 0 mm 0 W/m2
23:44 11.1 °C 8.5 °C 1022.6 hPa NW 1.9 km/h 4.8 km/h 81% 0 mm 0 W/m2
23:49 11.1 °C 8.6 °C 1022.9 hPa NW 2.6 km/h 4.8 km/h 81.4% 0 mm 0 W/m2
23:54 11.1 °C 8.6 °C 1022.6 hPa NW 2.9 km/h 4.8 km/h 82% 0 mm 0 W/m2
23:59 11 °C 8.5 °C 1022.9 hPa NW 2.6 km/h 4.8 km/h 82% 0 mm 0 W/m2
Bath Spa Weather
Compliments of Weather Underground - 2 mb